Time;durP1;ratioP1;P1;durP2;ratioP2;P2;SDS_P1;SDS_P2;PMS_P1;PMS_P2;Temp;Humidity;BMP_temperature;BMP_pressure;BME280_temperature;BME280_humidity;BME280_pressure;Samples;Min_cycle;Max_cycle;Signal;HPM_P1;HPM_P2
2022/12/31 00:02:22;;;;;;;1.85;1.25;;;19.80;99.00;;;;;;4901412;29;20210;-75
2022/12/31 06:40:25;;;;;;;4.97;0.75;;;19.60;99.90;;;;;;5600238;23;20228;-81
2022/12/31 06:42:52;;;;;;;2.75;0.57;;;18.70;99.90;;;;;;4921040;29;20209;-80
2022/12/31 06:45:40;;;;;;;0.73;0.50;;;19.60;99.90;;;;;;4921636;29;20209;-80
2022/12/31 06:48:07;;;;;;;1.98;0.40;;;19.50;99.90;;;;;;4921603;29;20645;-81
2022/12/31 06:50:34;;;;;;;6.70;0.60;;;19.50;99.90;;;;;;4924916;29;20235;-81
2022/12/31 06:53:01;;;;;;;0.40;0.40;;;19.60;99.90;;;;;;4924962;29;20208;-80
2022/12/31 06:55:30;;;;;;;0.70;0.60;;;19.60;99.90;;;;;;4922883;29;20208;-77
2022/12/31 06:57:57;;;;;;;1.15;0.60;;;19.60;99.90;;;;;;4921303;29;20204;-77
2022/12/31 07:00:24;;;;;;;3.97;0.60;;;19.60;99.90;;;;;;4921246;29;20240;-77
2022/12/31 07:03:10;;;;;;;2.50;0.55;;;19.60;99.90;;;;;;4922544;29;20213;-77
2022/12/31 07:05:46;;;;;;;1.65;0.50;;;19.50;99.90;;;;;;4921252;29;20223;-77
2022/12/31 07:08:26;;;;;;;4.93;0.68;;;19.60;99.90;;;;;;4921084;29;20193;-77
2022/12/31 07:11:01;;;;;;;3.92;0.40;;;19.60;99.90;;;;;;4921106;29;20221;-78
2022/12/31 07:14:09;;;;;;;1.55;0.52;;;19.70;99.90;;;;;;4922938;29;20208;-78
2022/12/31 07:16:49;;;;;;;2.90;0.77;;;19.70;99.90;;;;;;4920381;29;20205;-79
2022/12/31 07:19:27;;;;;;;1.25;0.55;;;19.60;99.90;;;;;;4924968;29;20195;-79
2022/12/31 07:21:58;;;;;;;0.35;0.35;;;19.60;99.90;;;;;;4921672;29;20196;-78
2022/12/31 07:24:25;;;;;;;0.43;0.40;;;19.70;99.90;;;;;;4921183;29;20197;-78
2022/12/31 07:27:05;;;;;;;1.73;0.40;;;19.60;99.90;;;;;;4922235;29;20296;-79
2022/12/31 07:29:46;;;;;;;1.33;0.40;;;19.60;99.90;;;;;;4922395;29;20229;-78
2022/12/31 07:32:34;;;;;;;1.27;0.50;;;19.60;99.90;;;;;;4921292;29;20189;-79
2022/12/31 07:35:08;;;;;;;3.10;0.50;;;19.60;99.90;;;;;;4921124;29;20586;-78
2022/12/31 07:37:44;;;;;;;1.30;0.50;;;19.60;99.90;;;;;;4921504;29;20201;-78
2022/12/31 07:40:18;;;;;;;0.50;0.45;;;19.50;99.90;;;;;;4921821;29;20236;-79
2022/12/31 07:43:00;;;;;;;1.25;0.40;;;19.50;99.90;;;;;;4922588;29;20227;-79
2022/12/31 07:45:33;;;;;;;4.07;0.60;;;19.50;99.90;;;;;;4922248;29;20196;-78
2022/12/31 07:48:00;;;;;;;4.55;0.68;;;19.50;99.90;;;;;;4922118;29;20190;-80
2022/12/31 07:50:27;;;;;;;2.15;0.60;;;19.50;99.90;;;;;;4921142;29;20232;-78
2022/12/31 07:52:55;;;;;;;0.40;0.40;;;19.60;99.90;;;;;;4920428;29;20208;-78
2022/12/31 07:55:21;;;;;;;0.73;0.40;;;19.60;99.90;;;;;;4920820;29;20208;-78
2022/12/31 07:57:57;;;;;;;2.30;0.50;;;19.60;99.90;;;;;;4921109;29;20212;-77
2022/12/31 08:00:24;;;;;;;1.77;0.77;;;19.60;99.90;;;;;;4920388;29;20240;-78
2022/12/31 08:03:08;;;;;;;5.07;0.60;;;19.60;99.90;;;;;;4919782;29;20576;-78
2022/12/31 08:05:45;;;;;;;2.40;0.57;;;19.60;99.90;;;;;;4920123;29;20204;-78
2022/12/31 08:08:26;;;;;;;2.08;0.57;;;19.50;99.90;;;;;;4920106;29;20196;-78
2022/12/31 08:11:06;;;;;;;1.02;0.60;;;19.50;99.90;;;;;;4920867;29;20255;-80
2022/12/31 08:13:34;;;;;;;4.32;0.50;;;19.50;99.90;;;;;;4922437;29;20660;-79
2022/12/31 08:16:02;;;;;;;0.50;0.50;;;19.60;99.90;;;;;;4923361;29;20205;-80
2022/12/31 08:18:29;;;;;;;1.90;0.50;;;19.50;99.90;;;;;;4923272;29;20205;-79
2022/12/31 08:21:06;;;;;;;0.43;0.40;;;19.50;99.90;;;;;;4922216;29;20236;-79
2022/12/31 08:23:39;;;;;;;0.82;0.45;;;19.60;99.90;;;;;;4922784;29;20196;-79
2022/12/31 08:26:21;;;;;;;2.10;0.40;;;19.60;99.90;;;;;;4923177;29;20216;-79
2022/12/31 08:29:02;;;;;;;8.10;0.40;;;19.60;99.90;;;;;;4922222;29;20208;-79
2022/12/31 08:31:37;;;;;;;1.05;0.60;;;19.60;99.90;;;;;;4921738;29;20283;-79
2022/12/31 08:34:10;;;;;;;3.08;0.70;;;19.60;99.90;;;;;;4921317;29;20560;-79
2022/12/31 08:36:45;;;;;;;6.35;0.50;;;19.70;99.90;;;;;;4921571;29;20189;-79
2022/12/31 08:39:18;;;;;;;3.05;0.60;;;19.70;99.90;;;;;;4921505;29;20184;-79
2022/12/31 08:41:47;;;;;;;2.58;0.77;;;19.70;99.90;;;;;;4920801;29;20561;-80
2022/12/31 08:44:24;;;;;;;6.20;0.70;;;19.60;99.90;;;;;;4921254;29;20189;-79
2022/12/31 08:46:57;;;;;;;3.15;0.90;;;19.70;99.90;;;;;;4920801;29;20189;-79
2022/12/31 08:49:27;;;;;;;11.57;1.10;;;19.70;99.90;;;;;;4921610;29;20592;-79
2022/12/31 08:51:54;;;;;;;4.05;0.98;;;19.60;99.90;;;;;;4923587;29;20204;-78
2022/12/31 08:54:21;;;;;;;3.05;0.90;;;19.60;99.90;;;;;;4918817;29;20703;-78
2022/12/31 08:56:52;;;;;;;3.85;0.98;;;19.70;99.90;;;;;;4919631;29;20208;-78
2022/12/31 08:59:32;;;;;;;4.55;0.75;;;19.70;99.90;;;;;;4920265;29;20207;-79
2022/12/31 09:02:30;;;;;;;6.20;0.93;;;19.60;99.90;;;;;;4919875;29;20697;-80
2022/12/31 09:05:08;;;;;;;1.33;0.73;;;19.60;99.90;;;;;;4917931;29;20687;-78
2022/12/31 09:07:37;;;;;;;5.88;0.70;;;19.60;99.90;;;;;;4919615;29;20189;-78
2022/12/31 09:10:17;;;;;;;5.03;0.88;;;19.60;99.90;;;;;;4920618;29;20225;-81
2022/12/31 09:12:55;;;;;;;19.63;1.08;;;19.40;99.90;;;;;;4919726;29;20196;-84
2022/12/31 09:15:29;;;;;;;7.25;0.65;;;19.60;99.90;;;;;;4919386;29;20204;-79
2022/12/31 09:17:57;;;;;;;10.52;1.23;;;19.70;99.90;;;;;;4919587;29;20193;-79
2022/12/31 09:20:25;;;;;;;6.95;0.95;;;19.70;99.90;;;;;;4919981;29;20236;-85
2022/12/31 09:22:55;;;;;;;14.13;1.33;;;19.80;99.90;;;;;;4920197;29;20605;-81
2022/12/31 09:25:23;;;;;;;7.50;1.05;;;19.80;99.90;;;;;;4919759;29;20204;-78
2022/12/31 09:28:02;;;;;;;6.25;1.30;;;19.80;99.90;;;;;;4919406;29;20205;-81
2022/12/31 09:30:37;;;;;;;15.48;1.10;;;19.70;99.90;;;;;;4918995;29;20257;-81
2022/12/31 09:33:11;;;;;;;4.22;0.90;;;19.90;99.90;;;;;;4918893;29;20192;-81
2022/12/31 09:35:44;;;;;;;8.48;1.08;;;19.80;99.90;;;;;;4919005;29;20189;-82
2022/12/31 09:38:17;;;;;;;5.53;1.00;;;19.70;99.90;;;;;;4919082;29;20189;-80
2022/12/31 09:41:12;;;;;;;4.72;1.10;;;19.80;99.90;;;;;;4919367;29;20232;-80
2022/12/31 09:44:11;;;;;;;7.10;1.23;;;19.80;99.90;;;;;;4920094;29;20251;-80
2022/12/31 09:47:22;;;;;;;4.20;1.35;;;19.80;99.90;;;;;;4919045;29;20205;-81
2022/12/31 09:50:12;;;;;;;5.20;1.13;;;19.80;99.90;;;;;;4921597;29;20284;-79
2022/12/31 09:53:01;;;;;;;9.77;1.10;;;19.80;99.90;;;;;;4929165;29;20200;-80
2022/12/31 09:55:35;;;;;;;2.92;1.02;;;19.80;99.90;;;;;;4927709;29;20189;-79
2022/12/31 10:10:57;;;;;;;4.25;3.85;;;17.70;99.90;;;;;;5091910;27;20548;-70
2022/12/31 10:13:38;;;;;;;4.93;3.80;;;16.40;99.90;;;;;;5091163;28;20187;-73
2022/12/31 10:16:24;;;;;;;3.92;3.70;;;15.30;99.90;;;;;;5091307;28;20183;-70
2022/12/31 10:19:40;;;;;;;3.88;3.67;;;14.50;99.90;;;;;;5091401;28;20233;-69
2022/12/31 10:22:24;;;;;;;3.65;3.35;;;14.00;99.90;;;;;;5091177;28;20199;-70
2022/12/31 10:25:14;;;;;;;2.97;2.88;;;13.50;99.90;;;;;;5091115;28;20194;-71
2022/12/31 10:27:53;;;;;;;3.42;3.13;;;13.20;99.90;;;;;;5091037;28;20634;-72
2022/12/31 10:30:22;;;;;;;3.40;3.20;;;12.90;99.90;;;;;;5090881;28;20230;-71
2022/12/31 10:33:05;;;;;;;4.18;3.30;;;12.70;99.90;;;;;;5090891;28;20225;-71
2022/12/31 10:35:40;;;;;;;2.67;2.50;;;12.40;99.90;;;;;;5090917;28;20558;-71
2022/12/31 10:38:20;;;;;;;2.40;2.30;;;12.20;99.90;;;;;;5091108;28;20191;-70
2022/12/31 10:41:28;;;;;;;2.30;2.20;;;12.00;99.90;;;;;;5090743;28;20215;-70
2022/12/31 10:44:32;;;;;;;1.52;1.52;;;11.90;99.90;;;;;;5090360;28;20609;-70
2022/12/31 10:47:29;;;;;;;1.60;1.60;;;11.80;99.90;;;;;;5090315;28;20203;-71
2022/12/31 10:50:31;;;;;;;1.40;1.40;;;11.70;99.90;;;;;;5080106;28;20230;-71
2022/12/31 10:53:34;;;;;;;1.90;1.90;;;11.60;99.90;;;;;;5090576;28;20187;-70
2022/12/31 10:56:30;;;;;;;1.83;1.83;;;11.60;99.90;;;;;;5093870;28;20245;-72
2022/12/31 10:59:36;;;;;;;2.00;1.90;;;11.60;99.90;;;;;;5079898;28;20200;-72
2022/12/31 11:02:27;;;;;;;3.22;3.13;;;11.60;99.90;;;;;;5095160;28;20271;-73
2022/12/31 11:05:30;;;;;;;3.05;2.95;;;11.60;99.90;;;;;;5094360;28;20184;-72
2022/12/31 11:08:10;;;;;;;2.22;2.13;;;11.60;99.90;;;;;;5094687;28;20665;-72
2022/12/31 11:11:01;;;;;;;2.45;2.35;;;11.60;99.90;;;;;;5094738;28;20223;-72
2022/12/31 11:13:54;;;;;;;2.42;2.33;;;11.60;99.90;;;;;;5094872;28;20203;-72
2022/12/31 11:16:40;;;;;;;2.42;2.33;;;11.50;99.90;;;;;;5095081;28;20241;-72
2022/12/31 11:19:16;;;;;;;1.90;1.80;;;11.50;99.90;;;;;;5094484;28;20271;-72
2022/12/31 11:21:57;;;;;;;2.58;2.38;;;11.50;99.90;;;;;;5083744;28;20215;-72
2022/12/31 11:24:38;;;;;;;3.22;2.88;;;11.50;99.90;;;;;;5081507;28;20257;-72
2022/12/31 11:27:21;;;;;;;4.32;3.10;;;11.60;99.90;;;;;;5080944;28;20643;-72
2022/12/31 11:30:01;;;;;;;4.75;3.58;;;11.60;99.90;;;;;;5079503;28;20230;-73
2022/12/31 11:32:44;;;;;;;4.10;3.70;;;11.60;99.90;;;;;;5080683;28;20662;-72
2022/12/31 11:35:32;;;;;;;3.65;3.35;;;11.70;99.90;;;;;;5080572;28;20224;-72
2022/12/31 11:38:09;;;;;;;4.45;2.90;;;11.60;99.90;;;;;;5079272;28;20195;-72
2022/12/31 11:40:43;;;;;;;3.25;2.63;;;11.70;99.90;;;;;;5076058;28;20216;-72
2022/12/31 11:43:27;;;;;;;2.38;2.28;;;11.70;99.90;;;;;;5076443;28;20612;-73
2022/12/31 11:46:16;;;;;;;3.47;3.20;;;11.60;99.90;;;;;;5076695;28;20591;-72
2022/12/31 11:48:57;;;;;;;3.58;3.30;;;11.70;99.90;;;;;;5075632;28;20195;-73
2022/12/31 11:51:43;;;;;;;4.50;3.92;;;11.60;99.90;;;;;;5076329;28;20222;-73
2022/12/31 11:54:45;;;;;;;5.63;5.00;;;11.60;99.90;;;;;;5077870;28;20191;-73
2022/12/31 11:57:20;;;;;;;7.25;5.93;;;11.60;99.90;;;;;;5080927;28;20624;-73
2022/12/31 11:59:47;;;;;;;5.85;5.30;;;11.60;99.90;;;;;;5075678;28;20222;-73
2022/12/31 12:02:25;;;;;;;10.80;8.00;;;11.60;99.90;;;;;;5076139;28;20286;-72
2022/12/31 12:04:59;;;;;;;8.07;7.13;;;11.60;99.90;;;;;;5078178;28;20210;-72
2022/12/31 12:07:28;;;;;;;8.05;6.80;;;11.60;99.90;;;;;;5077973;28;20214;-72
2022/12/31 12:09:58;;;;;;;4.47;4.13;;;11.60;99.90;;;;;;5077686;28;20219;-72
2022/12/31 12:12:24;;;;;;;3.22;3.03;;;11.60;99.90;;;;;;5077391;28;20287;-72
2022/12/31 12:14:54;;;;;;;2.22;2.13;;;11.60;99.90;;;;;;5075447;28;20200;-72
2022/12/31 12:17:30;;;;;;;2.50;2.40;;;11.50;99.90;;;;;;5075589;28;20204;-72
2022/12/31 12:20:02;;;;;;;2.08;1.98;;;11.50;99.90;;;;;;5075474;28;20306;-72
2022/12/31 12:22:30;;;;;;;2.67;2.47;;;11.40;99.90;;;;;;5075355;28;20184;-73
2022/12/31 12:25:02;;;;;;;2.30;2.20;;;11.40;99.90;;;;;;5074928;28;20667;-73
2022/12/31 12:27:31;;;;;;;1.88;1.88;;;11.40;99.90;;;;;;5075245;28;20278;-72
2022/12/31 12:29:58;;;;;;;1.67;1.67;;;11.40;99.90;;;;;;5075159;28;20228;-72
2022/12/31 12:32:26;;;;;;;2.05;1.95;;;11.40;99.90;;;;;;5074054;28;20682;-72
2022/12/31 12:34:53;;;;;;;2.63;2.42;;;11.40;99.90;;;;;;5075459;28;20200;-72
2022/12/31 12:37:31;;;;;;;3.35;3.15;;;11.50;99.90;;;;;;5075184;28;20571;-73
2022/12/31 12:40:00;;;;;;;4.03;3.72;;;11.50;99.90;;;;;;5075076;28;20216;-73
2022/12/31 12:42:28;;;;;;;4.03;3.70;;;11.50;99.90;;;;;;5074663;28;20664;-73
2022/12/31 12:45:06;;;;;;;4.97;4.35;;;11.50;99.90;;;;;;5074798;28;20199;-72
2022/12/31 12:47:34;;;;;;;3.70;3.50;;;11.50;99.90;;;;;;5074824;28;20199;-73
2022/12/31 12:50:01;;;;;;;4.00;3.70;;;11.60;99.90;;;;;;5074487;28;20231;-73
2022/12/31 12:52:51;;;;;;;3.65;3.45;;;11.60;99.90;;;;;;5074651;28;20207;-74
2022/12/31 12:55:25;;;;;;;3.25;3.05;;;11.60;99.90;;;;;;5074571;28;20188;-73
2022/12/31 12:58:02;;;;;;;2.78;2.65;;;11.60;99.90;;;;;;5074571;28;20199;-73
2022/12/31 13:00:37;;;;;;;3.30;3.10;;;11.60;99.90;;;;;;5074405;28;20219;-73
2022/12/31 13:03:34;;;;;;;3.03;2.72;;;11.60;99.90;;;;;;5074231;28;20555;-73
2022/12/31 13:06:18;;;;;;;2.50;2.40;;;11.70;99.90;;;;;;5077307;28;20184;-73
2022/12/31 13:09:01;;;;;;;2.35;2.25;;;11.70;99.90;;;;;;5096445;28;20219;-73
2022/12/31 13:11:36;;;;;;;3.92;3.55;;;11.70;99.90;;;;;;5074657;28;20281;-73
2022/12/31 13:14:14;;;;;;;4.07;3.78;;;11.80;99.90;;;;;;5074480;28;20188;-73
2022/12/31 13:16:47;;;;;;;3.22;3.00;;;11.70;99.90;;;;;;5073925;28;20188;-73
2022/12/31 13:19:19;;;;;;;4.28;3.35;;;11.80;99.90;;;;;;5073749;28;20654;-73
2022/12/31 13:21:53;;;;;;;2.83;2.63;;;11.80;99.90;;;;;;5074047;28;20195;-73
2022/12/31 13:24:35;;;;;;;2.58;2.47;;;11.80;99.90;;;;;;5074164;28;20194;-73
2022/12/31 13:27:09;;;;;;;2.35;2.25;;;11.80;99.90;;;;;;5074040;28;20203;-73
2022/12/31 13:29:37;;;;;;;1.85;1.83;;;11.70;99.90;;;;;;5073798;28;20231;-73
2022/12/31 13:32:07;;;;;;;1.80;1.70;;;11.70;99.90;;;;;;5073906;28;20200;-73
2022/12/31 13:34:38;;;;;;;1.27;1.17;;;11.70;99.90;;;;;;5074000;28;20188;-73
2022/12/31 13:37:14;;;;;;;1.45;1.45;;;11.60;99.90;;;;;;5073886;28;20191;-73
2022/12/31 13:39:44;;;;;;;0.98;0.98;;;11.60;99.90;;;;;;5073568;28;20737;-73
2022/12/31 13:42:16;;;;;;;1.00;1.00;;;11.60;99.90;;;;;;5073685;28;20214;-73
2022/12/31 13:44:49;;;;;;;0.80;0.80;;;11.60;99.90;;;;;;5073673;28;20180;-74
2022/12/31 13:47:20;;;;;;;0.70;0.70;;;11.60;99.90;;;;;;5074148;28;20599;-73
2022/12/31 13:49:52;;;;;;;0.80;0.80;;;11.60;99.90;;;;;;5074033;28;20224;-73
2022/12/31 13:52:30;;;;;;;0.60;0.60;;;11.60;99.90;;;;;;5073794;28;20184;-74
2022/12/31 13:55:04;;;;;;;1.10;1.10;;;11.60;99.90;;;;;;5073938;28;20184;-73
2022/12/31 13:57:42;;;;;;;1.10;1.10;;;11.50;99.90;;;;;;5073629;28;20196;-73
2022/12/31 14:00:20;;;;;;;1.30;1.20;;;11.50;99.90;;;;;;5074442;28;20228;-73
2022/12/31 14:02:56;;;;;;;1.10;1.10;;;11.50;99.90;;;;;;5073271;28;20222;-73
2022/12/31 14:05:28;;;;;;;0.80;0.80;;;11.40;99.90;;;;;;5073543;28;20194;-73
2022/12/31 14:07:58;;;;;;;0.90;0.90;;;11.40;99.90;;;;;;5073550;28;20195;-73
2022/12/31 14:10:40;;;;;;;0.90;0.90;;;11.40;99.90;;;;;;5073116;28;20273;-73
2022/12/31 14:13:19;;;;;;;1.30;1.30;;;11.30;99.90;;;;;;5073531;28;20211;-71
2022/12/31 14:15:58;;;;;;;1.10;1.10;;;11.30;99.90;;;;;;5073586;28;20188;-70
2022/12/31 14:18:33;;;;;;;1.23;1.23;;;11.20;99.90;;;;;;5073113;28;20546;-70
2022/12/31 14:21:07;;;;;;;1.40;1.40;;;11.20;99.90;;;;;;5073373;28;20211;-70
2022/12/31 14:23:42;;;;;;;1.85;1.75;;;11.10;99.90;;;;;;5073368;28;20184;-70
2022/12/31 14:26:20;;;;;;;2.08;1.98;;;11.10;99.90;;;;;;5073342;28;20207;-70
2022/12/31 14:28:51;;;;;;;2.80;2.60;;;11.00;99.90;;;;;;5073445;28;20191;-71
2022/12/31 14:31:31;;;;;;;2.45;2.35;;;11.00;99.90;;;;;;5073144;28;20246;-71
2022/12/31 14:34:08;;;;;;;2.80;2.55;;;10.90;99.90;;;;;;5073011;28;20637;-73
2022/12/31 14:36:44;;;;;;;2.78;2.58;;;10.80;99.90;;;;;;5073275;28;20192;-73
2022/12/31 14:39:29;;;;;;;2.40;2.20;;;10.80;99.90;;;;;;5073200;28;20188;-73
2022/12/31 14:42:12;;;;;;;2.60;2.40;;;10.70;99.90;;;;;;5073245;28;20180;-73
2022/12/31 14:44:53;;;;;;;2.20;2.10;;;10.70;99.90;;;;;;5073288;28;20233;-73
2022/12/31 14:47:30;;;;;;;1.77;1.67;;;10.60;99.90;;;;;;5073528;28;20191;-72
2022/12/31 14:50:04;;;;;;;1.73;1.63;;;10.50;99.90;;;;;;5073249;28;20215;-72
2022/12/31 14:52:34;;;;;;;1.40;1.40;;;10.50;99.90;;;;;;5073213;28;20187;-72
2022/12/31 14:55:03;;;;;;;1.23;1.23;;;10.40;99.90;;;;;;5073074;28;20208;-72
2022/12/31 14:57:39;;;;;;;1.25;1.25;;;10.30;99.90;;;;;;5076537;28;20200;-72
2022/12/31 15:00:22;;;;;;;1.00;1.00;;;10.30;99.90;;;;;;5076682;28;20216;-72
2022/12/31 15:02:51;;;;;;;0.90;0.90;;;10.20;99.90;;;;;;5077387;28;20184;-72
2022/12/31 15:05:19;;;;;;;1.02;1.02;;;10.10;99.90;;;;;;5077341;28;20211;-72
2022/12/31 15:07:58;;;;;;;1.00;1.00;;;10.10;99.90;;;;;;5076709;28;20196;-73
2022/12/31 15:10:38;;;;;;;1.10;1.10;;;10.00;99.90;;;;;;5076070;28;20230;-72
2022/12/31 15:13:13;;;;;;;1.15;1.15;;;9.90;99.90;;;;;;5076506;28;20527;-71
2022/12/31 15:16:00;;;;;;;1.92;1.80;;;9.90;99.90;;;;;;5076461;28;20658;-68
2022/12/31 15:18:37;;;;;;;4.50;4.10;;;9.80;99.90;;;;;;5076090;28;20525;-71
2022/12/31 15:21:26;;;;;;;4.32;3.92;;;9.70;99.90;;;;;;5076825;28;20227;-71
2022/12/31 15:23:53;;;;;;;4.53;4.13;;;9.70;99.90;;;;;;5076070;28;20188;-71
2022/12/31 15:26:23;;;;;;;4.35;3.95;;;9.60;99.90;;;;;;5076274;28;20192;-71
2022/12/31 15:29:00;;;;;;;4.15;3.85;;;9.50;99.90;;;;;;5076331;28;20192;-71
2022/12/31 15:31:28;;;;;;;3.85;3.55;;;9.50;99.90;;;;;;5075804;28;20682;-71
2022/12/31 15:34:00;;;;;;;3.67;3.40;;;9.40;99.90;;;;;;5076058;28;20200;-71
2022/12/31 15:36:28;;;;;;;2.50;2.40;;;9.30;99.90;;;;;;5076108;28;20218;-71
2022/12/31 15:39:21;;;;;;;2.22;2.13;;;9.30;99.90;;;;;;5076028;28;20208;-70
2022/12/31 15:41:49;;;;;;;2.45;2.25;;;9.20;99.90;;;;;;5076130;28;20177;-71
2022/12/31 15:44:24;;;;;;;1.92;1.90;;;9.20;99.90;;;;;;5076007;28;20200;-71
2022/12/31 15:46:56;;;;;;;2.40;2.30;;;9.10;99.90;;;;;;5075885;28;20215;-71
2022/12/31 15:49:24;;;;;;;2.47;2.28;;;9.00;99.90;;;;;;5075877;28;20188;-71
2022/12/31 15:52:00;;;;;;;2.47;2.38;;;9.00;99.90;;;;;;5075924;28;20227;-71
2022/12/31 15:54:35;;;;;;;4.50;3.92;;;9.00;99.90;;;;;;5075433;28;20658;-71
2022/12/31 15:57:03;;;;;;;5.88;5.15;;;8.90;99.90;;;;;;5075577;28;20636;-71
2022/12/31 15:59:31;;;;;;;6.20;5.60;;;8.90;99.90;;;;;;5075564;28;20216;-71
2022/12/31 16:01:58;;;;;;;6.45;5.85;;;8.80;99.90;;;;;;5075705;28;20196;-71
2022/12/31 16:04:27;;;;;;;6.65;5.95;;;8.80;99.90;;;;;;5075742;28;20188;-71
2022/12/31 16:06:58;;;;;;;6.47;5.88;;;8.80;99.90;;;;;;5075536;28;20681;-71
2022/12/31 16:09:28;;;;;;;7.07;6.15;;;8.70;99.90;;;;;;5093320;28;20222;-70
2022/12/31 16:11:57;;;;;;;7.80;5.80;;;8.70;99.90;;;;;;5087632;28;20208;-70
2022/12/31 16:14:25;;;;;;;6.90;6.18;;;8.70;99.90;;;;;;5075686;28;20215;-70
2022/12/31 16:16:56;;;;;;;8.40;6.78;;;8.60;99.90;;;;;;5075136;28;20533;-70
2022/12/31 16:19:42;;;;;;;7.68;6.70;;;8.60;99.90;;;;;;5075474;28;20199;-70
2022/12/31 16:22:15;;;;;;;6.57;5.95;;;8.60;99.90;;;;;;5075370;28;20191;-70
2022/12/31 16:24:42;;;;;;;10.52;8.25;;;8.50;99.90;;;;;;5075731;28;20184;-71
2022/12/31 16:27:13;;;;;;;11.23;8.43;;;8.50;99.90;;;;;;5075202;28;20207;-71
2022/12/31 16:29:44;;;;;;;13.35;9.68;;;8.50;99.90;;;;;;5075001;28;20706;-71
2022/12/31 16:32:15;;;;;;;16.42;11.77;;;8.40;99.90;;;;;;5075101;28;20208;-71
2022/12/31 16:34:42;;;;;;;14.70;11.68;;;8.40;99.90;;;;;;5075139;28;20192;-71
2022/12/31 16:37:15;;;;;;;17.10;12.80;;;8.40;99.90;;;;;;5074953;28;20192;-72
2022/12/31 16:40:17;;;;;;;18.42;13.20;;;8.30;99.90;;;;;;5074813;28;20220;-70
2022/12/31 16:42:46;;;;;;;17.50;13.48;;;8.30;99.90;;;;;;5098745;22;20225;-70
2022/12/31 16:45:29;;;;;;;16.52;13.15;;;8.30;99.90;;;;;;5035699;28;20197;-71
2022/12/31 16:48:01;;;;;;;16.38;12.57;;;8.20;99.90;;;;;;5034873;28;20185;-69
2022/12/31 16:50:29;;;;;;;16.90;11.82;;;8.20;99.90;;;;;;5035040;28;20208;-69
2022/12/31 16:52:59;;;;;;;14.55;11.52;;;8.20;99.90;;;;;;5034554;28;20217;-69
2022/12/31 16:55:28;;;;;;;13.15;11.02;;;8.20;99.90;;;;;;5034343;28;20193;-69
2022/12/31 16:58:00;;;;;;;11.35;9.32;;;8.10;99.90;;;;;;5034694;28;20201;-69
2022/12/31 17:00:27;;;;;;;10.55;8.38;;;8.10;99.90;;;;;;5034680;28;20189;-69
2022/12/31 17:03:06;;;;;;;9.25;7.93;;;8.10;99.90;;;;;;5034574;28;20565;-68
2022/12/31 17:05:34;;;;;;;8.80;7.40;;;8.10;99.90;;;;;;5034279;28;20217;-68
2022/12/31 17:08:19;;;;;;;8.23;7.20;;;8.00;99.90;;;;;;5034385;28;20201;-68
2022/12/31 17:10:47;;;;;;;9.13;6.85;;;8.00;99.90;;;;;;5034429;28;20205;-68
2022/12/31 17:13:23;;;;;;;8.75;7.80;;;7.90;99.90;;;;;;5035139;28;20232;-68
2022/12/31 17:15:50;;;;;;;10.93;8.90;;;7.90;99.90;;;;;;5034048;28;20212;-68
2022/12/31 17:18:21;;;;;;;14.68;12.95;;;7.90;99.90;;;;;;5033862;28;20201;-68
2022/12/31 17:20:49;;;;;;;18.25;13.57;;;7.90;99.90;;;;;;5035099;28;20181;-68
2022/12/31 17:23:23;;;;;;;17.60;13.27;;;7.90;99.90;;;;;;5033718;28;20622;-68
2022/12/31 17:25:58;;;;;;;18.55;14.05;;;7.80;99.90;;;;;;5034190;28;20618;-68
2022/12/31 17:28:26;;;;;;;17.75;13.25;;;7.80;99.90;;;;;;5034151;28;20193;-68
2022/12/31 17:30:53;;;;;;;16.17;13.02;;;7.80;99.90;;;;;;5033987;28;20221;-68
2022/12/31 17:33:31;;;;;;;15.02;11.80;;;7.80;99.90;;;;;;5033847;28;20545;-68
2022/12/31 17:36:19;;;;;;;12.52;10.82;;;7.80;99.90;;;;;;5034006;28;20208;-68
2022/12/31 17:38:46;;;;;;;13.27;10.48;;;7.80;99.90;;;;;;5033718;28;20193;-68
2022/12/31 17:41:24;;;;;;;10.50;9.38;;;7.70;99.90;;;;;;5033917;28;20205;-68
2022/12/31 17:43:53;;;;;;;10.90;8.63;;;7.70;99.90;;;;;;5033494;28;20225;-71
2022/12/31 17:46:21;;;;;;;8.63;7.22;;;7.70;99.90;;;;;;5033812;28;20208;-71
2022/12/31 17:48:54;;;;;;;7.32;6.63;;;7.60;99.90;;;;;;5033950;28;20205;-71
2022/12/31 17:51:21;;;;;;;5.82;5.15;;;7.60;99.90;;;;;;5033795;28;20687;-71
2022/12/31 17:53:47;;;;;;;5.50;5.00;;;7.60;99.90;;;;;;5034130;28;20271;-71
2022/12/31 17:56:17;;;;;;;5.30;4.80;;;7.60;99.90;;;;;;5034303;28;20200;-71
2022/12/31 17:58:47;;;;;;;3.95;3.65;;;7.60;99.90;;;;;;5034713;28;20599;-71
2022/12/31 18:01:15;;;;;;;4.43;4.05;;;7.60;99.90;;;;;;5034329;28;20206;-71
2022/12/31 18:03:42;;;;;;;3.08;2.88;;;7.50;99.90;;;;;;5033916;28;20225;-71
2022/12/31 18:06:11;;;;;;;3.35;3.15;;;7.50;99.90;;;;;;5033757;28;20201;-71
2022/12/31 18:08:38;;;;;;;2.17;2.08;;;7.50;99.90;;;;;;5033755;28;20208;-70
2022/12/31 18:11:06;;;;;;;2.38;2.28;;;7.50;99.90;;;;;;5033514;28;20217;-70
2022/12/31 18:13:33;;;;;;;2.45;2.35;;;7.50;99.90;;;;;;5033624;28;20283;-70
2022/12/31 18:15:59;;;;;;;1.98;1.88;;;7.40;99.90;;;;;;5033166;28;20616;-70
2022/12/31 18:18:29;;;;;;;1.98;1.88;;;7.40;99.90;;;;;;5033634;28;20205;-71
2022/12/31 18:20:58;;;;;;;1.85;1.75;;;7.40;99.90;;;;;;5033523;28;20549;-71
2022/12/31 18:23:29;;;;;;;1.80;1.80;;;7.30;99.90;;;;;;5033485;28;20228;-68
2022/12/31 18:25:55;;;;;;;2.35;2.17;;;7.30;99.90;;;;;;5033623;28;20185;-68
2022/12/31 18:28:22;;;;;;;2.03;1.92;;;7.30;99.90;;;;;;5033424;28;20209;-68
2022/12/31 18:30:50;;;;;;;2.40;2.30;;;7.30;99.90;;;;;;5034212;28;20201;-67
2022/12/31 18:33:21;;;;;;;4.25;3.85;;;7.20;99.90;;;;;;5037008;28;20712;-67
2022/12/31 18:35:48;;;;;;;4.63;4.30;;;7.20;99.90;;;;;;5038204;28;20272;-67
2022/12/31 18:38:17;;;;;;;9.18;7.55;;;7.20;99.90;;;;;;5037287;28;20201;-68
2022/12/31 18:40:51;;;;;;;8.85;7.63;;;7.20;99.90;;;;;;5036960;28;20687;-68
2022/12/31 18:43:19;;;;;;;6.93;6.32;;;7.20;99.90;;;;;;5036971;28;20224;-68
2022/12/31 18:45:46;;;;;;;6.85;6.35;;;7.20;99.90;;;;;;5037394;28;20230;-68
2022/12/31 18:48:13;;;;;;;5.88;5.47;;;7.10;99.90;;;;;;5037235;28;20197;-68
2022/12/31 18:50:41;;;;;;;6.35;5.82;;;7.10;99.90;;;;;;5037217;28;20201;-69
2022/12/31 18:53:13;;;;;;;6.18;5.57;;;7.10;99.90;;;;;;5036952;28;20225;-68
2022/12/31 18:55:44;;;;;;;5.50;5.00;;;7.10;99.90;;;;;;5037040;28;20330;-68
2022/12/31 18:58:12;;;;;;;6.75;6.03;;;7.00;99.90;;;;;;5037131;28;20637;-68
2022/12/31 19:00:39;;;;;;;8.25;7.30;;;7.00;99.90;;;;;;5037014;28;20257;-68
2022/12/31 19:03:05;;;;;;;15.73;10.52;;;7.00;99.90;;;;;;5036777;28;20283;-68
2022/12/31 19:05:37;;;;;;;19.15;15.15;;;6.90;99.90;;;;;;5036854;28;20205;-68
2022/12/31 19:08:03;;;;;;;23.25;17.85;;;6.90;99.90;;;;;;5036750;28;20190;-68
2022/12/31 19:10:30;;;;;;;22.05;17.17;;;6.90;99.90;;;;;;5036687;28;20263;-70
2022/12/31 19:12:57;;;;;;;23.67;18.50;;;6.90;99.90;;;;;;5036563;28;20225;-70
2022/12/31 19:15:29;;;;;;;18.27;14.77;;;6.90;99.90;;;;;;5036660;28;20197;-71
2022/12/31 19:17:55;;;;;;;16.08;13.43;;;6.90;99.90;;;;;;5036561;28;20209;-71
2022/12/31 19:20:22;;;;;;;13.98;12.60;;;6.90;99.90;;;;;;5036471;28;20201;-71
2022/12/31 19:22:49;;;;;;;11.65;10.50;;;6.90;99.90;;;;;;5036354;28;20221;-71
2022/12/31 19:25:19;;;;;;;10.73;9.77;;;6.90;99.90;;;;;;5036365;28;20205;-71
2022/12/31 19:27:46;;;;;;;9.02;8.23;;;6.90;99.90;;;;;;5036477;28;20201;-71
2022/12/31 19:30:24;;;;;;;8.43;7.63;;;6.80;99.90;;;;;;5036281;28;20197;-70
2022/12/31 19:32:53;;;;;;;7.22;6.68;;;6.80;99.90;;;;;;5036161;28;20228;-70
2022/12/31 19:35:20;;;;;;;7.78;7.07;;;6.80;99.90;;;;;;5036171;28;20205;-70
2022/12/31 19:37:49;;;;;;;8.02;6.90;;;6.80;99.90;;;;;;5036180;28;20251;-70
2022/12/31 19:40:17;;;;;;;5.93;5.47;;;6.80;99.90;;;;;;5036086;28;20235;-70
2022/12/31 19:42:45;;;;;;;5.53;5.03;;;6.80;99.90;;;;;;5035269;28;20229;-71
2022/12/31 19:45:16;;;;;;;5.68;5.28;;;6.80;99.90;;;;;;5036156;28;20212;-71
2022/12/31 19:47:43;;;;;;;7.28;6.57;;;6.80;99.90;;;;;;5036095;28;20605;-71
2022/12/31 19:50:16;;;;;;;5.68;5.25;;;6.80;99.90;;;;;;5036507;28;20212;-71
2022/12/31 19:52:46;;;;;;;5.80;5.30;;;6.80;99.90;;;;;;5035866;28;20225;-71
2022/12/31 19:55:15;;;;;;;5.47;4.97;;;6.80;99.90;;;;;;5036551;28;20186;-71
2022/12/31 19:57:42;;;;;;;12.35;10.65;;;6.80;99.90;;;;;;5035878;28;20224;-71
2022/12/31 20:00:13;;;;;;;15.77;12.18;;;6.80;99.90;;;;;;5035801;28;20201;-71
2022/12/31 20:02:40;;;;;;;11.15;9.95;;;6.70;99.90;;;;;;5035574;28;20217;-70
2022/12/31 20:05:07;;;;;;;13.02;9.88;;;6.70;99.90;;;;;;5035382;28;20687;-68
2022/12/31 20:07:35;;;;;;;9.88;8.88;;;6.60;99.90;;;;;;5035688;28;20281;-68
2022/12/31 20:10:03;;;;;;;10.88;9.80;;;6.60;99.90;;;;;;5035455;28;20275;-69
2022/12/31 20:12:30;;;;;;;17.15;13.80;;;6.60;99.90;;;;;;5035358;28;20236;-68
2022/12/31 20:14:57;;;;;;;16.45;12.48;;;6.60;99.90;;;;;;5035483;28;20204;-69
2022/12/31 20:17:24;;;;;;;18.42;14.35;;;6.50;99.90;;;;;;5035105;28;20647;-69